createdAt,value
2018-05-24T00:02:01.868Z,12.63
2018-05-24T00:04:30.103Z,9.30
2018-05-24T00:06:57.579Z,12.83
2018-05-24T00:09:25.005Z,10.83
2018-05-24T00:11:52.426Z,9.20
2018-05-24T00:14:19.867Z,8.90
2018-05-24T00:16:47.301Z,12.73
2018-05-24T00:19:14.731Z,12.53
2018-05-24T00:21:42.165Z,12.33
2018-05-24T00:24:09.608Z,12.40
2018-05-24T00:26:37.805Z,11.50
2018-05-24T00:29:06.014Z,13.47
2018-05-24T00:31:33.500Z,13.57
2018-05-24T00:34:00.905Z,10.40
2018-05-24T00:36:28.345Z,12.67
2018-05-24T00:38:55.761Z,11.43
2018-05-24T00:41:23.972Z,10.20
2018-05-24T00:43:52.150Z,11.00
2018-05-24T00:46:19.585Z,11.43
2018-05-24T00:48:47.040Z,16.37
2018-05-24T00:51:14.455Z,11.50
2018-05-24T00:53:41.884Z,12.70
2018-05-24T00:56:09.343Z,10.63
2018-05-24T00:58:36.755Z,10.50
2018-05-24T01:01:04.976Z,10.40
2018-05-24T01:03:32.409Z,8.73
2018-05-24T01:06:00.599Z,11.43
2018-05-24T01:08:28.799Z,9.30
2018-05-24T01:10:56.235Z,10.20
2018-05-24T01:13:23.668Z,11.00
2018-05-24T01:15:51.137Z,10.63
2018-05-24T01:18:18.538Z,10.57
2018-05-24T01:20:45.965Z,10.47
2018-05-24T01:23:13.422Z,12.77
2018-05-24T01:25:40.891Z,13.87
2018-05-24T01:28:08.320Z,10.70
2018-05-24T01:30:35.764Z,10.40
2018-05-24T01:33:03.209Z,10.03
2018-05-24T01:35:30.628Z,11.43
2018-05-24T01:37:58.064Z,11.50
2018-05-24T01:40:25.496Z,9.60
2018-05-24T01:42:52.921Z,10.70
2018-05-24T01:45:20.355Z,9.93
2018-05-24T01:47:47.828Z,14.53
2018-05-24T01:50:15.272Z,10.90
2018-05-24T01:52:42.719Z,11.30
2018-05-24T01:55:10.154Z,10.63
2018-05-24T01:57:37.594Z,11.57
2018-05-24T02:00:05.212Z,9.30
2018-05-24T02:02:32.642Z,11.00
2018-05-24T02:05:00.083Z,11.33
2018-05-24T02:07:27.517Z,12.23
2018-05-24T02:09:55.716Z,11.43
2018-05-24T02:12:23.942Z,15.03
2018-05-24T02:14:51.364Z,11.13
2018-05-24T02:17:19.569Z,11.53
2018-05-24T02:19:46.987Z,8.93
2018-05-24T02:22:14.426Z,9.83
2018-05-24T02:24:41.845Z,8.70
2018-05-24T02:27:09.274Z,9.80
2018-05-24T02:29:37.844Z,9.50
2018-05-24T02:32:05.270Z,10.93
2018-05-24T02:34:32.698Z,11.77
2018-05-24T02:37:00.124Z,8.87
2018-05-24T02:39:27.569Z,12.50
2018-05-24T02:41:55.004Z,11.70
2018-05-24T02:44:22.436Z,13.13
2018-05-24T02:46:49.861Z,8.23
2018-05-24T02:49:17.307Z,13.63
2018-05-24T02:51:44.748Z,13.77
2018-05-24T02:54:12.936Z,11.20
2018-05-24T02:56:41.183Z,11.80
2018-05-24T02:59:08.605Z,10.30
2018-05-24T03:01:36.917Z,9.37
2018-05-24T03:04:04.282Z,10.27
2018-05-24T03:06:31.739Z,8.40
2018-05-24T03:08:59.160Z,9.50
2018-05-24T03:11:26.591Z,11.87
2018-05-24T03:13:54.032Z,11.03
2018-05-24T03:16:22.219Z,8.90
2018-05-24T03:18:50.417Z,10.33
2018-05-24T03:21:17.932Z,10.27
2018-05-24T03:23:45.359Z,14.53
2018-05-24T03:26:12.787Z,9.53
2018-05-24T03:28:40.226Z,13.10
2018-05-24T03:31:07.684Z,16.87
2018-05-24T03:33:35.089Z,12.77
2018-05-24T03:36:02.543Z,13.97
2018-05-24T03:38:29.978Z,10.50
2018-05-24T03:40:57.454Z,10.47
2018-05-24T03:43:24.866Z,9.90
2018-05-24T03:45:52.286Z,9.80
2018-05-24T03:48:20.298Z,8.33
2018-05-24T03:50:47.722Z,9.63
2018-05-24T03:53:15.925Z,9.50
2018-05-24T03:55:43.336Z,16.27
2018-05-24T03:58:10.752Z,6.83
2018-05-24T04:00:50.286Z,11.97
2018-05-24T04:03:30.318Z,8.23
2018-05-24T04:05:57.741Z,7.73
2018-05-24T04:08:25.180Z,9.43
2018-05-24T04:10:52.610Z,10.87
2018-05-24T04:13:22.736Z,8.80
2018-05-24T04:15:50.174Z,10.03
2018-05-24T04:18:18.362Z,8.20
2018-05-24T04:20:45.792Z,10.20
2018-05-24T04:23:14.045Z,10.67
2018-05-24T04:25:42.201Z,10.93
2018-05-24T04:28:09.641Z,13.53
2018-05-24T04:30:37.837Z,13.23
2018-05-24T04:33:05.301Z,7.70
2018-05-24T04:35:32.734Z,7.27
2018-05-24T04:38:00.181Z,13.10
2018-05-24T04:40:27.648Z,10.67
2018-05-24T04:42:55.073Z,11.73
2018-05-24T04:45:22.572Z,10.83
2018-05-24T04:47:49.932Z,9.60
2018-05-24T04:50:17.384Z,9.57
2018-05-24T04:52:45.590Z,7.63
2018-05-24T04:55:13.780Z,10.60
2018-05-24T04:57:41.212Z,9.47
2018-05-24T05:00:08.639Z,10.83
2018-05-24T05:02:36.081Z,14.43
2018-05-24T05:05:04.276Z,8.20
2018-05-24T05:07:31.724Z,9.47
2018-05-24T05:09:59.163Z,12.20
2018-05-24T05:12:26.618Z,11.20
2018-05-24T05:14:54.032Z,9.07
2018-05-24T05:17:22.241Z,11.47
2018-05-24T05:19:50.441Z,12.17
2018-05-24T05:22:17.883Z,11.13
2018-05-24T05:24:45.297Z,11.00
2018-05-24T05:27:12.720Z,9.77
2018-05-24T05:29:40.938Z,7.00
2018-05-24T05:32:08.354Z,10.50
2018-05-24T05:34:35.788Z,7.47
2018-05-24T05:37:03.235Z,8.90
2018-05-24T05:39:31.468Z,7.70
2018-05-24T05:41:58.890Z,13.53
2018-05-24T05:44:26.316Z,7.10
2018-05-24T05:46:53.754Z,7.43
2018-05-24T05:49:21.176Z,7.60
2018-05-24T05:51:49.383Z,8.13
2018-05-24T05:54:17.631Z,7.47
2018-05-24T05:56:45.009Z,7.00
2018-05-24T05:59:12.424Z,10.07
2018-05-24T06:01:39.956Z,11.03
2018-05-24T06:04:07.314Z,12.50
2018-05-24T06:06:34.734Z,7.07
2018-05-24T06:09:02.168Z,9.60
2018-05-24T06:11:29.609Z,8.33
2018-05-24T06:13:57.067Z,10.80
2018-05-24T06:16:24.487Z,8.77
2018-05-24T06:18:52.680Z,6.43
2018-05-24T06:21:20.181Z,9.40
2018-05-24T06:23:47.616Z,16.53
2018-05-24T06:26:15.066Z,15.77
2018-05-24T06:28:43.258Z,9.40
2018-05-24T06:31:11.460Z,7.63
2018-05-24T06:33:39.639Z,6.80
2018-05-24T06:36:07.839Z,9.70
2018-05-24T06:38:36.015Z,9.00
2018-05-24T06:41:04.212Z,7.80
2018-05-24T06:43:31.639Z,9.37
2018-05-24T06:45:59.071Z,7.47
2018-05-24T06:48:26.503Z,7.23
2018-05-24T06:50:54.725Z,13.97
2018-05-24T06:53:22.141Z,8.43
2018-05-24T06:55:50.340Z,7.47
2018-05-24T06:58:18.168Z,11.10
2018-05-24T07:00:45.589Z,7.53
2018-05-24T07:03:13.023Z,9.07
2018-05-24T07:05:40.436Z,7.43
2018-05-24T07:08:08.646Z,7.17
2018-05-24T07:10:36.837Z,7.57
2018-05-24T07:13:04.260Z,8.27
2018-05-24T07:15:31.701Z,8.40
2018-05-24T07:17:59.117Z,9.23
2018-05-24T07:20:27.316Z,7.10
2018-05-24T07:22:54.755Z,7.93
2018-05-24T07:25:22.973Z,9.07
2018-05-24T07:27:51.145Z,8.23
2018-05-24T07:30:19.332Z,8.60
2018-05-24T07:32:46.781Z,7.27
2018-05-24T07:35:14.220Z,10.00
2018-05-24T07:37:41.684Z,11.93
2018-05-24T07:40:09.099Z,8.83
2018-05-24T07:42:36.517Z,13.23
2018-05-24T07:45:03.958Z,8.70
2018-05-24T07:47:31.448Z,8.13
2018-05-24T07:49:58.874Z,9.37
2018-05-24T07:52:26.316Z,9.13
2018-05-24T07:54:53.829Z,10.10
2018-05-24T07:57:21.192Z,9.10
2018-05-24T07:59:49.409Z,10.23
2018-05-24T08:02:16.871Z,12.73
2018-05-24T08:04:45.029Z,8.87
2018-05-24T08:07:13.232Z,13.40
2018-05-24T08:09:41.424Z,9.17
2018-05-24T08:12:08.864Z,9.47
2018-05-24T08:14:36.330Z,10.70
2018-05-24T08:17:03.744Z,11.00
2018-05-24T08:19:31.179Z,12.10
2018-05-24T08:21:59.362Z,6.93
2018-05-24T08:24:26.794Z,9.13
2018-05-24T08:26:54.220Z,8.80
2018-05-24T08:29:21.730Z,8.83
2018-05-24T08:31:49.139Z,11.30
2018-05-24T08:34:16.600Z,8.73
2018-05-24T08:36:44.820Z,8.20
2018-05-24T08:39:12.297Z,8.60
2018-05-24T08:41:39.755Z,8.83
2018-05-24T08:44:07.132Z,9.00
2018-05-24T08:46:34.586Z,10.23
2018-05-24T08:49:02.775Z,10.03
2018-05-24T08:51:30.197Z,10.37
2018-05-24T08:53:57.617Z,7.97
2018-05-24T08:56:25.061Z,10.27
2018-05-24T08:58:53.264Z,12.43
2018-05-24T09:01:21.511Z,8.73
2018-05-24T09:03:48.914Z,8.70
2018-05-24T09:06:17.096Z,8.57
2018-05-24T09:08:45.281Z,9.20
2018-05-24T09:11:13.463Z,8.93
2018-05-24T09:13:40.904Z,11.23
2018-05-24T09:16:08.329Z,8.97
2018-05-24T09:18:35.759Z,8.93
2018-05-24T09:21:03.201Z,8.70
2018-05-24T09:23:30.612Z,11.57
2018-05-24T09:25:58.066Z,11.27
2018-05-24T09:28:26.261Z,8.90
2018-05-24T09:30:54.454Z,10.20
2018-05-24T09:33:21.892Z,9.73
2018-05-24T09:35:49.317Z,15.90
2018-05-24T09:38:16.750Z,11.57
2018-05-24T09:40:44.179Z,11.30
2018-05-24T09:43:11.617Z,12.43
2018-05-24T09:45:39.033Z,12.70
2018-05-24T09:48:06.477Z,9.83
2018-05-24T09:50:33.921Z,11.30
2018-05-24T09:53:02.081Z,9.77
2018-05-24T09:55:30.281Z,15.27
2018-05-24T09:57:57.754Z,10.70
2018-05-24T10:00:25.920Z,14.73
2018-05-24T10:02:54.110Z,9.50
2018-05-24T10:05:22.319Z,11.10
2018-05-24T10:07:49.754Z,12.03
2018-05-24T10:10:17.172Z,10.50
2018-05-24T10:12:44.623Z,11.13
2018-05-24T10:15:12.853Z,9.17
2018-05-24T10:17:40.281Z,10.30
2018-05-24T10:20:07.697Z,8.50
2018-05-24T10:22:35.121Z,8.30
2018-05-24T10:25:02.549Z,7.83
2018-05-24T10:27:29.989Z,6.80
2018-05-24T10:29:57.455Z,6.00
2018-05-24T10:32:24.872Z,8.00
2018-05-24T10:34:53.086Z,6.03
2018-05-24T10:37:20.504Z,6.17
2018-05-24T10:39:48.747Z,5.50
2018-05-24T10:42:16.172Z,6.80
2018-05-24T10:44:44.359Z,8.67
2018-05-24T10:47:12.628Z,7.27
2018-05-24T10:49:40.053Z,7.70
2018-05-24T10:52:07.501Z,6.57
2018-05-24T10:54:34.936Z,7.50
2018-05-24T10:57:02.370Z,6.80
2018-05-24T10:59:29.846Z,7.10
2018-05-24T11:01:57.238Z,9.60
2018-05-24T11:04:24.727Z,7.20
2018-05-24T11:06:52.158Z,8.37
2018-05-24T11:09:19.580Z,11.27
2018-05-24T11:11:47.132Z,6.87
2018-05-24T11:14:14.444Z,9.00
2018-05-24T11:16:41.853Z,8.00
2018-05-24T11:19:09.292Z,5.03
2018-05-24T11:21:36.724Z,8.20
2018-05-24T11:24:04.922Z,7.30
2018-05-24T11:26:32.358Z,7.40
2018-05-24T11:28:59.864Z,6.57
2018-05-24T11:31:27.320Z,6.10
2018-05-24T11:33:54.729Z,10.50
2018-05-24T11:36:22.161Z,5.90
2018-05-24T11:38:49.590Z,7.63
2018-05-24T11:41:17.018Z,5.80
2018-05-24T11:43:44.456Z,4.30
2018-05-24T11:46:12.641Z,6.70
2018-05-24T11:48:40.840Z,9.20
2018-05-24T11:51:08.296Z,6.77
2018-05-24T11:53:36.503Z,5.70
2018-05-24T11:56:04.667Z,5.10
2018-05-24T11:58:32.894Z,6.40
2018-05-24T12:01:00.349Z,6.00
2018-05-24T12:03:27.760Z,5.40
2018-05-24T12:05:55.185Z,6.27
2018-05-24T12:08:22.605Z,7.60
2018-05-24T12:10:50.040Z,5.33
2018-05-24T12:13:17.477Z,5.73
2018-05-24T12:15:44.897Z,5.73
2018-05-24T12:18:12.328Z,5.27
2018-05-24T12:20:39.756Z,6.30
2018-05-24T12:23:07.187Z,5.73
2018-05-24T12:25:34.609Z,4.97
2018-05-24T12:28:02.838Z,5.67
2018-05-24T12:30:30.269Z,6.60
2018-05-24T12:32:57.692Z,6.33
2018-05-24T12:35:25.209Z,6.90
2018-05-24T12:37:52.641Z,5.33
2018-05-24T12:40:20.089Z,4.17
2018-05-24T12:42:47.491Z,6.63
2018-05-24T12:45:14.931Z,6.17
2018-05-24T12:47:42.371Z,7.20
2018-05-24T12:50:09.773Z,6.77
2018-05-24T12:52:37.238Z,5.17
2018-05-24T12:55:04.649Z,5.90
2018-05-24T12:57:32.854Z,6.10
2018-05-24T13:00:01.053Z,6.47
2018-05-24T13:02:29.275Z,6.10
2018-05-24T13:04:56.709Z,6.87
2018-05-24T13:07:24.149Z,5.90
2018-05-24T13:09:51.582Z,6.17
2018-05-24T13:12:19.000Z,6.33
2018-05-24T13:14:47.196Z,7.03
2018-05-24T13:17:14.631Z,5.63
2018-05-24T13:19:42.068Z,8.10
2018-05-24T13:22:09.547Z,6.30
2018-05-24T13:24:37.049Z,8.80
2018-05-24T13:27:05.185Z,7.90
2018-05-24T13:29:32.592Z,6.70
2018-05-24T13:32:00.080Z,5.47
2018-05-24T13:34:27.535Z,5.30
2018-05-24T13:36:54.925Z,6.60
2018-05-24T13:39:22.358Z,5.87
2018-05-24T13:41:49.774Z,5.40
2018-05-24T13:44:17.257Z,7.07
2018-05-24T13:46:44.614Z,5.13
2018-05-24T13:49:12.040Z,5.40
2018-05-24T13:51:39.461Z,4.10
2018-05-24T13:54:06.874Z,5.40
2018-05-24T13:56:34.293Z,5.80
2018-05-24T13:59:01.705Z,5.63
2018-05-24T14:01:29.258Z,4.57
2018-05-24T14:03:56.586Z,4.70
2018-05-24T14:06:24.765Z,4.60
2018-05-24T14:08:52.959Z,4.73
2018-05-24T14:11:21.155Z,3.80
2018-05-24T14:13:48.577Z,4.20
2018-05-24T14:16:15.996Z,4.70
2018-05-24T14:18:43.432Z,7.30
2018-05-24T14:21:10.843Z,4.60
2018-05-24T14:23:38.280Z,3.80
2018-05-24T14:26:06.511Z,2.93
2018-05-24T14:28:34.085Z,3.20
2018-05-24T14:31:01.491Z,3.43
2018-05-24T14:33:28.934Z,5.87
2018-05-24T14:35:56.393Z,3.57
2018-05-24T14:38:23.831Z,3.03
2018-05-24T14:40:52.092Z,3.27
2018-05-24T14:43:19.510Z,3.90
2018-05-24T14:45:46.923Z,2.90
2018-05-24T14:48:14.391Z,3.03
2018-05-24T14:50:42.613Z,3.17
2018-05-24T14:53:10.860Z,3.90
2018-05-24T14:55:38.317Z,3.60
2018-05-24T14:58:05.717Z,3.10
2018-05-24T15:00:33.177Z,2.73
2018-05-24T15:03:00.595Z,3.47
2018-05-24T15:05:28.027Z,2.73
2018-05-24T15:07:55.454Z,3.30
2018-05-24T15:10:22.841Z,3.43
2018-05-24T15:12:50.268Z,3.13
2018-05-24T15:15:17.701Z,3.33
2018-05-24T15:17:45.129Z,3.97
2018-05-24T15:20:12.532Z,6.13
2018-05-24T15:22:39.949Z,3.97
2018-05-24T15:25:07.375Z,3.10
2018-05-24T15:27:36.303Z,3.20
2018-05-24T15:30:03.724Z,4.23
2018-05-24T15:32:31.142Z,3.53
2018-05-24T15:34:58.582Z,3.07
2018-05-24T15:37:26.760Z,3.30
2018-05-24T15:39:54.955Z,3.30
2018-05-24T15:42:23.141Z,3.23
2018-05-24T15:44:51.322Z,3.90
2018-05-24T15:47:19.516Z,3.90
2018-05-24T15:49:47.721Z,3.60
2018-05-24T15:52:15.900Z,3.80
2018-05-24T15:54:43.316Z,3.60
2018-05-24T15:57:10.750Z,3.03
2018-05-24T15:59:38.172Z,4.33
2018-05-24T16:02:05.611Z,6.90
2018-05-24T16:04:33.063Z,3.97
2018-05-24T16:07:00.477Z,4.10
2018-05-24T16:09:27.903Z,3.43
2018-05-24T16:11:55.333Z,5.50
2018-05-24T16:14:23.531Z,4.30
2018-05-24T16:16:51.829Z,5.10
2018-05-24T16:19:20.009Z,5.17
2018-05-24T16:21:48.212Z,6.90
2018-05-24T16:24:15.639Z,5.70
2018-05-24T16:26:43.059Z,6.23
2018-05-24T16:29:10.473Z,5.03
2018-05-24T16:31:38.671Z,5.50
2018-05-24T16:34:06.090Z,6.97
2018-05-24T16:36:33.502Z,4.77
2018-05-24T16:39:00.935Z,8.07
2018-05-24T16:41:28.367Z,5.20
2018-05-24T16:43:56.540Z,6.87
2018-05-24T16:46:24.737Z,6.77
2018-05-24T16:48:52.920Z,4.70
2018-05-24T16:51:21.119Z,5.90
2018-05-24T16:53:48.605Z,6.07
2018-05-24T16:56:16.032Z,6.57
2018-05-24T16:58:43.460Z,5.33
2018-05-24T17:01:10.910Z,5.73
2018-05-24T17:03:38.338Z,7.43
2018-05-24T17:06:06.513Z,6.27
2018-05-24T17:08:34.709Z,4.90
2018-05-24T17:11:02.903Z,7.93
2018-05-24T17:13:31.095Z,13.40
2018-05-24T17:15:58.540Z,6.30
2018-05-24T17:18:25.965Z,9.33
2018-05-24T17:20:53.397Z,10.83
2018-05-24T17:23:21.591Z,7.63
2018-05-24T17:25:49.048Z,13.97
2018-05-24T17:28:16.479Z,9.07
2018-05-24T17:30:43.906Z,11.60
2018-05-24T17:33:11.359Z,9.47
2018-05-24T17:35:38.787Z,10.13
2018-05-24T17:38:06.211Z,12.70
2018-05-24T17:40:33.643Z,9.37
2018-05-24T17:43:01.134Z,13.13
2018-05-24T17:45:30.053Z,28.33
2018-05-24T17:47:57.519Z,14.47
2018-05-24T17:50:25.728Z,13.00
2018-05-24T17:52:53.155Z,12.70
2018-05-24T17:55:21.366Z,14.20
2018-05-24T17:57:48.795Z,13.13
2018-05-24T18:00:16.982Z,15.00
2018-05-24T18:02:45.177Z,14.97
2018-05-24T18:05:13.364Z,18.50
2018-05-24T18:07:41.570Z,18.83
2018-05-24T18:10:09.025Z,13.13
2018-05-24T18:12:36.481Z,15.50
2018-05-24T18:15:03.897Z,18.17
2018-05-24T18:17:31.321Z,12.83
2018-05-24T18:19:58.754Z,13.47
2018-05-24T18:22:26.198Z,14.00
2018-05-24T18:24:53.627Z,13.27
2018-05-24T18:27:21.826Z,10.57
2018-05-24T18:29:49.288Z,11.30
2018-05-24T18:32:17.496Z,12.97
2018-05-24T18:34:44.958Z,12.67
2018-05-24T18:37:12.387Z,14.10
2018-05-24T18:39:40.585Z,11.57
2018-05-24T18:42:08.031Z,15.40
2018-05-24T18:44:35.440Z,13.53
2018-05-24T18:47:03.676Z,11.77
2018-05-24T18:49:31.120Z,12.30
2018-05-24T18:51:58.569Z,12.13
2018-05-24T18:54:25.985Z,16.53
2018-05-24T18:56:53.410Z,12.00
2018-05-24T18:59:21.608Z,14.93
2018-05-24T19:01:49.058Z,13.60
2018-05-24T19:04:17.277Z,12.00
2018-05-24T19:06:44.704Z,32.93
2018-05-24T19:09:13.679Z,17.90
2018-05-24T19:11:41.112Z,10.87
2018-05-24T19:14:08.545Z,11.03
2018-05-24T19:16:36.812Z,13.73
2018-05-24T19:19:04.225Z,12.60
2018-05-24T19:21:31.704Z,11.00
2018-05-24T19:23:59.157Z,13.30
2018-05-24T19:26:27.356Z,13.17
2018-05-24T19:28:54.785Z,9.53
2018-05-24T19:31:22.229Z,11.73
2018-05-24T19:33:49.654Z,12.73
2018-05-24T19:36:17.106Z,11.50
2018-05-24T19:38:44.535Z,15.40
2018-05-24T19:41:11.971Z,12.20
2018-05-24T19:43:39.405Z,10.70
2018-05-24T19:46:06.839Z,43.53
2018-05-24T19:48:34.670Z,27.83
2018-05-24T19:51:02.900Z,19.53
2018-05-24T19:53:30.332Z,21.23
2018-05-24T19:55:57.768Z,14.57
2018-05-24T19:58:25.219Z,13.70
2018-05-24T20:00:52.654Z,16.63
2018-05-24T20:03:20.130Z,24.20
2018-05-24T20:05:47.569Z,13.57
2018-05-24T20:08:15.876Z,14.40
2018-05-24T20:10:44.081Z,16.33
2018-05-24T20:13:11.557Z,15.63
2018-05-24T20:15:38.996Z,14.77
2018-05-24T20:18:07.188Z,13.47
2018-05-24T20:20:34.619Z,14.23
2018-05-24T20:23:02.853Z,13.57
2018-05-24T20:25:31.007Z,14.97
2018-05-24T20:27:59.230Z,13.87
2018-05-24T20:30:26.660Z,14.40
2018-05-24T20:32:54.935Z,12.63
2018-05-24T20:35:22.296Z,14.07
2018-05-24T20:37:49.724Z,14.50
2018-05-24T20:40:17.157Z,15.27
2018-05-24T20:42:45.362Z,13.93
2018-05-24T20:45:13.564Z,14.63
2018-05-24T20:47:40.994Z,13.90
2018-05-24T20:50:08.439Z,16.60
2018-05-24T20:52:35.917Z,14.37
2018-05-24T20:55:03.333Z,18.23
2018-05-24T20:57:30.764Z,16.77
2018-05-24T20:59:58.187Z,19.50
2018-05-24T21:02:25.655Z,24.57
2018-05-24T21:04:53.105Z,19.70
2018-05-24T21:07:21.427Z,17.90
2018-05-24T21:09:48.831Z,13.20
2018-05-24T21:12:16.249Z,15.67
2018-05-24T21:14:43.674Z,14.40
2018-05-24T21:17:11.201Z,13.50
2018-05-24T21:19:38.647Z,16.80
2018-05-24T21:22:06.069Z,13.70
2018-05-24T21:24:33.504Z,15.23
2018-05-24T21:27:00.940Z,15.17
2018-05-24T21:29:29.133Z,16.27
2018-05-24T21:31:56.563Z,15.60
2018-05-24T21:34:24.052Z,16.57
2018-05-24T21:36:51.494Z,15.40
2018-05-24T21:39:18.931Z,15.27
2018-05-24T21:41:46.375Z,14.40
2018-05-24T21:44:14.598Z,18.17
2018-05-24T21:46:42.040Z,18.43
2018-05-24T21:49:09.487Z,20.60
2018-05-24T21:51:36.912Z,17.60
2018-05-24T21:54:04.339Z,18.60
2018-05-24T21:56:32.537Z,19.67
2018-05-24T21:58:59.964Z,19.10
2018-05-24T22:01:27.437Z,17.07
2018-05-24T22:03:54.886Z,16.70
2018-05-24T22:06:22.349Z,17.33
2018-05-24T22:08:49.783Z,19.47
2018-05-24T22:11:17.992Z,19.13
2018-05-24T22:13:45.420Z,23.77
2018-05-24T22:16:12.889Z,18.60
2018-05-24T22:18:40.291Z,17.60
2018-05-24T22:21:07.728Z,19.03
2018-05-24T22:23:35.919Z,25.50
2018-05-24T22:26:04.133Z,21.63
2018-05-24T22:28:31.571Z,20.83
2018-05-24T22:30:59.775Z,22.87
2018-05-24T22:33:27.220Z,19.47
2018-05-24T22:35:55.427Z,22.27
2018-05-24T22:38:23.635Z,25.70
2018-05-24T22:40:51.075Z,23.23
2018-05-24T22:43:18.551Z,23.27
2018-05-24T22:45:46.796Z,25.80
2018-05-24T22:48:14.209Z,28.97
2018-05-24T22:50:42.416Z,29.27
2018-05-24T22:53:09.854Z,26.60
2018-05-24T22:55:37.273Z,26.37
2018-05-24T22:58:04.713Z,29.03
2018-05-24T23:00:32.260Z,29.03
2018-05-24T23:02:59.672Z,26.77
2018-05-24T23:05:27.107Z,28.60
2018-05-24T23:07:54.545Z,29.67
2018-05-24T23:10:21.990Z,29.17
2018-05-24T23:12:49.426Z,27.60
2018-05-24T23:15:16.866Z,32.57
2018-05-24T23:17:45.080Z,25.30
2018-05-24T23:20:12.556Z,31.90
2018-05-24T23:22:40.724Z,27.43
2018-05-24T23:25:08.167Z,28.07
2018-05-24T23:27:35.623Z,27.13
2018-05-24T23:30:03.081Z,24.10
2018-05-24T23:32:30.500Z,25.07
2018-05-24T23:34:57.932Z,27.20
2018-05-24T23:37:25.364Z,29.17
2018-05-24T23:39:52.815Z,29.20
2018-05-24T23:42:21.004Z,27.23
2018-05-24T23:44:48.441Z,36.33
2018-05-24T23:47:15.917Z,32.03
2018-05-24T23:49:43.361Z,33.17
2018-05-24T23:52:10.822Z,27.30
2018-05-24T23:54:38.265Z,25.83
2018-05-24T23:57:05.671Z,31.60
2018-05-24T23:59:33.104Z,29.77
